sensor_id;sensor_type;location;lat;lon;timestamp;pressure;altitude;pressure_sealevel;temperature;humidity
24486;BME280;13449;49.374;8.584;2023-06-14T00:02:03;99879.47;;;19.94;38.93
24486;BME280;13449;49.374;8.584;2023-06-14T00:04:33;99866.78;;;20.02;37.40
24486;BME280;13449;49.374;8.584;2023-06-14T00:07:00;99869.84;;;19.99;37.64
24486;BME280;13449;49.374;8.584;2023-06-14T00:09:26;99869.84;;;19.99;37.60
24486;BME280;13449;49.374;8.584;2023-06-14T00:11:53;99869.81;;;19.93;37.92
24486;BME280;13449;49.374;8.584;2023-06-14T00:14:19;99865.28;;;19.93;38.40
24486;BME280;13449;49.374;8.584;2023-06-14T00:16:46;99870.13;;;19.83;39.43
24486;BME280;13449;49.374;8.584;2023-06-14T00:19:14;99862.72;;;19.85;38.44
24486;BME280;13449;49.374;8.584;2023-06-14T00:21:40;99857.38;;;19.85;38.08
24486;BME280;13449;49.374;8.584;2023-06-14T00:24:07;99860.97;;;19.92;37.77
24486;BME280;13449;49.374;8.584;2023-06-14T00:26:34;99857.91;;;19.95;38.05
24486;BME280;13449;49.374;8.584;2023-06-14T00:29:01;99864.56;;;20.06;37.37
24486;BME280;13449;49.374;8.584;2023-06-14T00:31:28;99855.56;;;20.14;37.35
24486;BME280;13449;49.374;8.584;2023-06-14T00:33:54;99858.47;;;20.19;37.39
24486;BME280;13449;49.374;8.584;2023-06-14T00:36:21;99853.00;;;20.27;37.05
24486;BME280;13449;49.374;8.584;2023-06-14T00:38:49;99848.28;;;20.29;36.87
24486;BME280;13449;49.374;8.584;2023-06-14T00:41:16;99852.84;;;20.35;36.80
24486;BME280;13449;49.374;8.584;2023-06-14T00:43:43;99844.44;;;20.38;36.68
24486;BME280;13449;49.374;8.584;2023-06-14T00:46:09;99845.06;;;20.40;36.56
24486;BME280;13449;49.374;8.584;2023-06-14T00:48:36;99843.41;;;20.39;36.59
24486;BME280;13449;49.374;8.584;2023-06-14T00:51:06;99844.69;;;20.43;36.42
24486;BME280;13449;49.374;8.584;2023-06-14T00:53:33;99847.38;;;20.43;36.33
24486;BME280;13449;49.374;8.584;2023-06-14T00:56:02;99848.41;;;20.42;36.49
24486;BME280;13449;49.374;8.584;2023-06-14T00:58:29;99846.75;;;20.41;36.44
24486;BME280;13449;49.374;8.584;2023-06-14T01:00:57;99844.69;;;20.43;36.40
24486;BME280;13449;49.374;8.584;2023-06-14T01:03:24;99846.56;;;20.43;36.89
24486;BME280;13449;49.374;8.584;2023-06-14T01:06:11;99842.41;;;20.40;36.18
24486;BME280;13449;49.374;8.584;2023-06-14T01:12:19;99847.94;;;20.39;36.19
24486;BME280;13449;49.374;8.584;2023-06-14T01:14:47;99838.06;;;20.39;35.83
24486;BME280;13449;49.374;8.584;2023-06-14T01:17:14;99844.66;;;20.37;35.78
24486;BME280;13449;49.374;8.584;2023-06-14T01:19:45;99840.13;;;20.37;35.85
24486;BME280;13449;49.374;8.584;2023-06-14T01:22:14;99842.84;;;20.44;35.52
24486;BME280;13449;49.374;8.584;2023-06-14T01:24:41;99850.34;;;20.33;35.99
24486;BME280;13449;49.374;8.584;2023-06-14T01:27:11;99846.22;;;20.31;35.74
24486;BME280;13449;49.374;8.584;2023-06-14T01:29:39;99846.63;;;20.28;35.83
24486;BME280;13449;49.374;8.584;2023-06-14T01:32:11;99857.91;;;20.23;36.18
24486;BME280;13449;49.374;8.584;2023-06-14T01:34:38;99859.75;;;20.23;36.37
24486;BME280;13449;49.374;8.584;2023-06-14T01:37:06;99856.00;;;20.17;36.31
24486;BME280;13449;49.374;8.584;2023-06-14T01:39:33;99867.38;;;19.98;37.42
24486;BME280;13449;49.374;8.584;2023-06-14T01:42:00;99867.50;;;19.68;37.89
24486;BME280;13449;49.374;8.584;2023-06-14T01:44:27;99882.94;;;19.52;39.46
24486;BME280;13449;49.374;8.584;2023-06-14T01:46:54;99888.13;;;19.38;40.18
24486;BME280;13449;49.374;8.584;2023-06-14T01:49:21;99884.97;;;19.13;40.34
24486;BME280;13449;49.374;8.584;2023-06-14T01:51:50;99885.25;;;19.04;40.54
24486;BME280;13449;49.374;8.584;2023-06-14T01:54:19;99888.56;;;19.06;40.14
24486;BME280;13449;49.374;8.584;2023-06-14T01:56:45;99890.22;;;19.07;39.75
24486;BME280;13449;49.374;8.584;2023-06-14T01:59:12;99884.53;;;19.10;39.75
24486;BME280;13449;49.374;8.584;2023-06-14T02:01:42;99899.63;;;19.03;42.53
24486;BME280;13449;49.374;8.584;2023-06-14T02:04:11;99886.84;;;18.98;40.42
24486;BME280;13449;49.374;8.584;2023-06-14T02:06:41;99884.25;;;18.90;41.58
24486;BME280;13449;49.374;8.584;2023-06-14T02:09:07;99899.34;;;18.68;43.17
24486;BME280;13449;49.374;8.584;2023-06-14T02:11:33;99896.81;;;18.52;43.36
24486;BME280;13449;49.374;8.584;2023-06-14T02:14:00;99892.78;;;18.56;42.85
24486;BME280;13449;49.374;8.584;2023-06-14T02:16:27;99896.09;;;18.58;42.76
24486;BME280;13449;49.374;8.584;2023-06-14T02:18:58;99895.53;;;18.48;42.95
24486;BME280;13449;49.374;8.584;2023-06-14T02:21:24;99903.91;;;18.60;41.68
24486;BME280;13449;49.374;8.584;2023-06-14T02:23:51;99901.72;;;18.48;43.36
24486;BME280;13449;49.374;8.584;2023-06-14T02:26:18;99896.09;;;18.58;41.69
24486;BME280;13449;49.374;8.584;2023-06-14T02:28:44;99902.22;;;18.44;43.18
24486;BME280;13449;49.374;8.584;2023-06-14T02:31:11;99901.88;;;18.47;42.24
24486;BME280;13449;49.374;8.584;2023-06-14T02:33:40;99897.84;;;18.51;42.70
24486;BME280;13449;49.374;8.584;2023-06-14T02:36:06;99906.66;;;18.51;42.62
24486;BME280;13449;49.374;8.584;2023-06-14T02:38:33;99902.16;;;18.52;42.67
24486;BME280;13449;49.374;8.584;2023-06-14T02:40:59;99906.91;;;18.65;41.43
24486;BME280;13449;49.374;8.584;2023-06-14T02:43:29;99907.59;;;18.59;42.82
24486;BME280;13449;49.374;8.584;2023-06-14T02:45:59;99901.66;;;18.71;41.35
24486;BME280;13449;49.374;8.584;2023-06-14T02:48:30;99904.97;;;18.73;41.02
24486;BME280;13449;49.374;8.584;2023-06-14T02:50:56;99901.66;;;18.71;41.51
24486;BME280;13449;49.374;8.584;2023-06-14T02:53:23;99905.34;;;18.70;41.41
24486;BME280;13449;49.374;8.584;2023-06-14T02:55:49;99902.03;;;18.68;41.51
24486;BME280;13449;49.374;8.584;2023-06-14T02:58:16;99909.28;;;18.74;40.68
24486;BME280;13449;49.374;8.584;2023-06-14T03:00:44;99895.56;;;18.77;41.09
24486;BME280;13449;49.374;8.584;2023-06-14T03:03:11;99907.91;;;18.78;40.81
24486;BME280;13449;49.374;8.584;2023-06-14T03:05:47;99910.28;;;18.73;40.64
24486;BME280;13449;49.374;8.584;2023-06-14T03:08:16;99914.72;;;18.66;41.51
24486;BME280;13449;49.374;8.584;2023-06-14T03:10:46;99919.06;;;18.59;41.18
24486;BME280;13449;49.374;8.584;2023-06-14T03:13:13;99917.06;;;18.61;41.32
24486;BME280;13449;49.374;8.584;2023-06-14T03:15:40;99925.88;;;18.47;43.71
24486;BME280;13449;49.374;8.584;2023-06-14T03:18:08;99927.38;;;18.26;43.70
24486;BME280;13449;49.374;8.584;2023-06-14T03:20:35;99927.47;;;18.18;43.33
24486;BME280;13449;49.374;8.584;2023-06-14T03:23:02;99939.31;;;17.93;45.82
24486;BME280;13449;49.374;8.584;2023-06-14T03:25:35;99940.81;;;17.64;47.38
24486;BME280;13449;49.374;8.584;2023-06-14T03:28:02;99948.59;;;17.43;47.77
24486;BME280;13449;49.374;8.584;2023-06-14T03:30:34;99950.03;;;17.15;48.03
24486;BME280;13449;49.374;8.584;2023-06-14T03:33:00;99955.41;;;16.98;48.69
24486;BME280;13449;49.374;8.584;2023-06-14T03:35:31;99958.44;;;16.87;49.82
24486;BME280;13449;49.374;8.584;2023-06-14T03:37:57;99956.28;;;16.83;49.22
24486;BME280;13449;49.374;8.584;2023-06-14T03:40:24;99963.63;;;16.81;49.51
24486;BME280;13449;49.374;8.584;2023-06-14T03:42:54;99957.13;;;16.83;48.64
24486;BME280;13449;49.374;8.584;2023-06-14T03:45:21;99971.44;;;16.82;48.91
24486;BME280;13449;49.374;8.584;2023-06-14T03:47:48;99975.44;;;16.78;49.98
24486;BME280;13449;49.374;8.584;2023-06-14T03:50:14;99978.41;;;16.83;47.95
24486;BME280;13449;49.374;8.584;2023-06-14T03:52:44;99983.72;;;16.83;49.17
24486;BME280;13449;49.374;8.584;2023-06-14T03:55:11;99986.56;;;16.82;49.06
24486;BME280;13449;49.374;8.584;2023-06-14T03:57:44;99981.06;;;16.83;48.70
24486;BME280;13449;49.374;8.584;2023-06-14T04:00:13;99979.06;;;16.85;48.77
24486;BME280;13449;49.374;8.584;2023-06-14T04:02:41;99979.41;;;16.90;49.64
24486;BME280;13449;49.374;8.584;2023-06-14T04:05:08;99996.84;;;16.85;49.47
24486;BME280;13449;49.374;8.584;2023-06-14T04:07:35;99996.03;;;16.84;49.17
24486;BME280;13449;49.374;8.584;2023-06-14T04:10:07;100003.66;;;16.87;49.86
24486;BME280;13449;49.374;8.584;2023-06-14T04:12:34;100008.31;;;16.85;49.49
24486;BME280;13449;49.374;8.584;2023-06-14T04:15:01;100004.34;;;16.89;48.64
24486;BME280;13449;49.374;8.584;2023-06-14T04:17:45;100006.31;;;16.87;49.50
24486;BME280;13449;49.374;8.584;2023-06-14T04:20:12;100019.63;;;16.87;51.26
24486;BME280;13449;49.374;8.584;2023-06-14T04:22:39;100012.63;;;16.94;48.91
24486;BME280;13449;49.374;8.584;2023-06-14T04:25:07;100018.28;;;16.99;48.74
24486;BME280;13449;49.374;8.584;2023-06-14T04:27:34;100024.91;;;17.03;50.02
24486;BME280;13449;49.374;8.584;2023-06-14T04:30:03;100022.75;;;16.99;49.87
24486;BME280;13449;49.374;8.584;2023-06-14T04:32:29;100037.25;;;16.96;50.41
24486;BME280;13449;49.374;8.584;2023-06-14T04:35:00;100028.56;;;17.02;49.53
24486;BME280;13449;49.374;8.584;2023-06-14T04:37:28;100032.22;;;17.01;50.33
24486;BME280;13449;49.374;8.584;2023-06-14T04:39:59;100030.56;;;17.09;48.92
24486;BME280;13449;49.374;8.584;2023-06-14T04:42:26;100033.53;;;17.14;49.46
24486;BME280;13449;49.374;8.584;2023-06-14T04:44:56;100032.19;;;17.18;49.57
24486;BME280;13449;49.374;8.584;2023-06-14T04:47:23;100033.84;;;17.19;50.01
24486;BME280;13449;49.374;8.584;2023-06-14T04:49:58;100025.56;;;17.22;49.11
24486;BME280;13449;49.374;8.584;2023-06-14T04:52:29;100035.50;;;17.28;49.22
24486;BME280;13449;49.374;8.584;2023-06-14T04:54:59;100034.81;;;17.34;49.41
24486;BME280;13449;49.374;8.584;2023-06-14T04:57:26;100045.13;;;17.37;50.54
24486;BME280;13449;49.374;8.584;2023-06-14T04:59:52;100042.44;;;17.45;49.66
24486;BME280;13449;49.374;8.584;2023-06-14T05:02:24;100043.56;;;17.51;50.01
24486;BME280;13449;49.374;8.584;2023-06-14T05:04:51;100055.38;;;17.56;51.21
24486;BME280;13449;49.374;8.584;2023-06-14T05:07:18;100056.69;;;17.60;50.75
24486;BME280;13449;49.374;8.584;2023-06-14T05:09:45;100071.72;;;17.53;53.24
24486;BME280;13449;49.374;8.584;2023-06-14T05:12:14;100061.84;;;17.70;52.43
24486;BME280;13449;49.374;8.584;2023-06-14T05:14:45;100068.63;;;17.81;51.93
24486;BME280;13449;49.374;8.584;2023-06-14T05:17:14;100072.63;;;17.77;50.38
24486;BME280;13449;49.374;8.584;2023-06-14T05:19:42;100062.59;;;17.87;50.45
24486;BME280;13449;49.374;8.584;2023-06-14T05:22:12;100066.88;;;17.96;49.75
24486;BME280;13449;49.374;8.584;2023-06-14T05:24:39;100065.47;;;18.08;51.25
24486;BME280;13449;49.374;8.584;2023-06-14T05:27:05;100062.19;;;17.98;48.92
24486;BME280;13449;49.374;8.584;2023-06-14T05:29:32;100061.69;;;18.25;49.45
24486;BME280;13449;49.374;8.584;2023-06-14T05:32:01;100070.50;;;18.34;51.59
24486;BME280;13449;49.374;8.584;2023-06-14T05:34:27;100072.25;;;18.42;51.02
24486;BME280;13449;49.374;8.584;2023-06-14T05:36:54;100073.88;;;18.51;48.49
24486;BME280;13449;49.374;8.584;2023-06-14T05:39:24;100076.94;;;18.63;49.31
24486;BME280;13449;49.374;8.584;2023-06-14T05:41:51;100077.38;;;18.74;49.63
24486;BME280;13449;49.374;8.584;2023-06-14T05:44:17;100080.53;;;18.93;50.09
24486;BME280;13449;49.374;8.584;2023-06-14T05:46:46;100082.78;;;19.04;51.04
24486;BME280;13449;49.374;8.584;2023-06-14T05:49:13;100077.66;;;19.17;49.52
24486;BME280;13449;49.374;8.584;2023-06-14T05:51:42;100070.41;;;19.26;46.49
24486;BME280;13449;49.374;8.584;2023-06-14T05:54:08;100070.66;;;19.45;46.63
24486;BME280;13449;49.374;8.584;2023-06-14T05:56:35;100092.59;;;19.56;47.98
24486;BME280;13449;49.374;8.584;2023-06-14T05:59:02;100091.25;;;19.60;49.45
24486;BME280;13449;49.374;8.584;2023-06-14T06:01:31;100088.34;;;19.47;46.13
24486;BME280;13449;49.374;8.584;2023-06-14T06:04:00;100095.56;;;19.76;49.01
24486;BME280;13449;49.374;8.584;2023-06-14T06:06:26;100101.81;;;19.83;49.18
24486;BME280;13449;49.374;8.584;2023-06-14T06:08:53;100096.38;;;19.91;47.13
24486;BME280;13449;49.374;8.584;2023-06-14T06:11:19;100099.75;;;19.99;47.47
24486;BME280;13449;49.374;8.584;2023-06-14T06:13:46;100113.41;;;20.04;49.65
24486;BME280;13449;49.374;8.584;2023-06-14T06:16:12;100105.47;;;20.11;48.44
24486;BME280;13449;49.374;8.584;2023-06-14T06:18:39;100115.28;;;20.25;49.23
24486;BME280;13449;49.374;8.584;2023-06-14T06:21:07;100108.50;;;20.08;47.34
24486;BME280;13449;49.374;8.584;2023-06-14T06:23:34;100108.59;;;20.15;45.81
24486;BME280;13449;49.374;8.584;2023-06-14T06:26:01;100104.78;;;20.24;46.10
24486;BME280;13449;49.374;8.584;2023-06-14T06:28:28;100101.56;;;20.50;46.40
24486;BME280;13449;49.374;8.584;2023-06-14T06:30:57;100100.06;;;20.26;44.75
24486;BME280;13449;49.374;8.584;2023-06-14T06:33:24;100115.16;;;20.48;48.79
24486;BME280;13449;49.374;8.584;2023-06-14T06:35:50;100107.97;;;20.70;45.14
24486;BME280;13449;49.374;8.584;2023-06-14T06:38:17;100122.16;;;20.92;46.91
24486;BME280;13449;49.374;8.584;2023-06-14T06:40:46;100123.19;;;20.91;46.23
24486;BME280;13449;49.374;8.584;2023-06-14T06:43:13;100120.09;;;21.15;44.71
24486;BME280;13449;49.374;8.584;2023-06-14T06:45:40;100103.84;;;21.17;43.04
24486;BME280;13449;49.374;8.584;2023-06-14T06:48:06;100122.31;;;21.33;46.39
24486;BME280;13449;49.374;8.584;2023-06-14T06:50:33;100117.78;;;21.34;44.45
24486;BME280;13449;49.374;8.584;2023-06-14T06:52:59;100116.06;;;21.26;42.49
24486;BME280;13449;49.374;8.584;2023-06-14T06:55:28;100122.88;;;21.29;45.70
24486;BME280;13449;49.374;8.584;2023-06-14T06:57:57;100130.88;;;21.50;46.92
24486;BME280;13449;49.374;8.584;2023-06-14T07:00:24;100140.91;;;21.76;47.06
24486;BME280;13449;49.374;8.584;2023-06-14T07:05:31;100117.09;;;21.60;41.61
24486;BME280;13449;49.374;8.584;2023-06-14T07:07:58;100126.16;;;21.93;42.76
24486;BME280;13449;49.374;8.584;2023-06-14T07:10:25;100129.78;;;22.14;43.20
24486;BME280;13449;49.374;8.584;2023-06-14T07:12:54;100124.00;;;22.10;41.28
24486;BME280;13449;49.374;8.584;2023-06-14T07:15:20;100122.56;;;22.14;40.89
24486;BME280;13449;49.374;8.584;2023-06-14T07:17:47;100122.97;;;22.11;41.10
24486;BME280;13449;49.374;8.584;2023-06-14T07:20:13;100129.13;;;22.05;40.37
24486;BME280;13449;49.374;8.584;2023-06-14T07:22:41;100126.56;;;22.31;39.79
24486;BME280;13449;49.374;8.584;2023-06-14T07:25:11;100118.50;;;22.31;38.37
24486;BME280;13449;49.374;8.584;2023-06-14T07:27:48;100118.53;;;22.45;38.54
24486;BME280;13449;49.374;8.584;2023-06-14T07:30:14;100120.63;;;22.69;39.38
24486;BME280;13449;49.374;8.584;2023-06-14T07:32:43;100124.34;;;22.68;37.89
24486;BME280;13449;49.374;8.584;2023-06-14T07:35:10;100113.00;;;22.79;37.97
24486;BME280;13449;49.374;8.584;2023-06-14T07:37:36;100121.06;;;22.79;37.10
24486;BME280;13449;49.374;8.584;2023-06-14T07:40:03;100121.91;;;22.73;36.98
24486;BME280;13449;49.374;8.584;2023-06-14T07:42:36;100114.50;;;22.88;36.87
24486;BME280;13449;49.374;8.584;2023-06-14T07:45:03;100124.00;;;23.04;37.24
24486;BME280;13449;49.374;8.584;2023-06-14T07:47:30;100121.94;;;23.13;38.26
24486;BME280;13449;49.374;8.584;2023-06-14T07:49:57;100131.03;;;23.25;38.91
24486;BME280;13449;49.374;8.584;2023-06-14T07:52:24;100127.31;;;23.13;36.38
24486;BME280;13449;49.374;8.584;2023-06-14T07:54:51;100147.31;;;23.50;40.59
24486;BME280;13449;49.374;8.584;2023-06-14T07:57:17;100134.28;;;23.53;37.97
24486;BME280;13449;49.374;8.584;2023-06-14T07:59:46;100121.91;;;23.52;36.31
24486;BME280;13449;49.374;8.584;2023-06-14T08:02:12;100117.75;;;23.56;35.97
24486;BME280;13449;49.374;8.584;2023-06-14T08:04:39;100128.50;;;23.70;38.10
24486;BME280;13449;49.374;8.584;2023-06-14T08:07:08;100120.19;;;23.78;36.35
24486;BME280;13449;49.374;8.584;2023-06-14T08:09:37;100135.06;;;23.80;38.99
24486;BME280;13449;49.374;8.584;2023-06-14T08:12:06;100120.56;;;23.88;35.24
24486;BME280;13449;49.374;8.584;2023-06-14T08:14:39;100126.75;;;23.95;36.38
24486;BME280;13449;49.374;8.584;2023-06-14T08:17:06;100126.59;;;23.77;37.64
24486;BME280;13449;49.374;8.584;2023-06-14T08:19:32;100119.91;;;23.99;37.38
24486;BME280;13449;49.374;8.584;2023-06-14T08:21:59;100120.25;;;24.16;36.66
24486;BME280;13449;49.374;8.584;2023-06-14T08:24:26;100113.56;;;24.25;36.43
24486;BME280;13449;49.374;8.584;2023-06-14T08:26:57;100122.13;;;24.15;35.04
24486;BME280;13449;49.374;8.584;2023-06-14T08:29:29;100113.91;;;24.04;35.96
24486;BME280;13449;49.374;8.584;2023-06-14T08:31:57;100115.78;;;24.41;35.04
24486;BME280;13449;49.374;8.584;2023-06-14T08:34:27;100107.97;;;24.27;34.04
24486;BME280;13449;49.374;8.584;2023-06-14T08:36:54;100106.31;;;24.26;33.74
24486;BME280;13449;49.374;8.584;2023-06-14T08:39:21;100109.50;;;24.54;35.29
24486;BME280;13449;49.374;8.584;2023-06-14T08:41:48;100102.78;;;24.70;33.54
24486;BME280;13449;49.374;8.584;2023-06-14T08:44:17;100099.72;;;24.22;32.85
24486;BME280;13449;49.374;8.584;2023-06-14T08:46:45;100117.84;;;24.46;33.70
24486;BME280;13449;49.374;8.584;2023-06-14T08:49:12;100112.06;;;24.42;33.02
24486;BME280;13449;49.374;8.584;2023-06-14T08:51:39;100118.31;;;24.36;32.74
24486;BME280;13449;49.374;8.584;2023-06-14T08:54:07;100102.09;;;24.43;32.32
24486;BME280;13449;49.374;8.584;2023-06-14T08:56:37;100095.22;;;24.09;30.87
24486;BME280;13449;49.374;8.584;2023-06-14T08:59:05;100115.50;;;24.56;33.90
24486;BME280;13449;49.374;8.584;2023-06-14T09:01:36;100099.94;;;24.58;32.89
24486;BME280;13449;49.374;8.584;2023-06-14T09:04:03;100099.25;;;24.69;32.20
24486;BME280;13449;49.374;8.584;2023-06-14T09:06:32;100099.84;;;24.71;32.62
24486;BME280;13449;49.374;8.584;2023-06-14T09:08:59;100104.75;;;24.81;32.87
24486;BME280;13449;49.374;8.584;2023-06-14T09:11:26;100111.28;;;24.92;32.90
24486;BME280;13449;49.374;8.584;2023-06-14T09:13:53;100100.91;;;24.70;33.12
24486;BME280;13449;49.374;8.584;2023-06-14T09:16:19;100110.44;;;24.98;32.71
24486;BME280;13449;49.374;8.584;2023-06-14T09:18:47;100102.19;;;24.61;30.53
24486;BME280;13449;49.374;8.584;2023-06-14T09:21:17;100113.16;;;24.66;32.49
24486;BME280;13449;49.374;8.584;2023-06-14T09:23:47;100124.16;;;24.90;32.36
24486;BME280;13449;49.374;8.584;2023-06-14T09:26:18;100116.16;;;25.08;32.66
24486;BME280;13449;49.374;8.584;2023-06-14T09:28:50;100112.53;;;24.96;31.93
24486;BME280;13449;49.374;8.584;2023-06-14T09:31:18;100117.66;;;25.04;32.44
24486;BME280;13449;49.374;8.584;2023-06-14T09:33:48;100121.13;;;25.11;32.81
24486;BME280;13449;49.374;8.584;2023-06-14T09:36:23;100117.56;;;25.35;32.96
24486;BME280;13449;49.374;8.584;2023-06-14T09:38:59;100103.06;;;25.36;30.29
24486;BME280;13449;49.374;8.584;2023-06-14T09:41:33;100106.94;;;24.91;30.95
24486;BME280;13449;49.374;8.584;2023-06-14T09:44:00;100098.34;;;25.07;30.05
24486;BME280;13449;49.374;8.584;2023-06-14T09:46:34;100101.50;;;25.04;29.76
24486;BME280;13449;49.374;8.584;2023-06-14T09:49:02;100099.84;;;24.71;29.61
24486;BME280;13449;49.374;8.584;2023-06-14T09:51:29;100107.13;;;24.96;30.60
24486;BME280;13449;49.374;8.584;2023-06-14T09:54:01;100110.88;;;25.20;30.80
24486;BME280;13449;49.374;8.584;2023-06-14T09:56:37;100109.13;;;25.32;30.26
24486;BME280;13449;49.374;8.584;2023-06-14T09:59:09;100107.59;;;25.18;30.50
24486;BME280;13449;49.374;8.584;2023-06-14T10:01:41;100112.75;;;25.19;29.61
24486;BME280;13449;49.374;8.584;2023-06-14T10:04:09;100109.56;;;25.04;28.69
24486;BME280;13449;49.374;8.584;2023-06-14T10:06:40;100097.28;;;25.33;29.68
24486;BME280;13449;49.374;8.584;2023-06-14T10:09:09;100103.16;;;25.23;28.37
24486;BME280;13449;49.374;8.584;2023-06-14T10:11:36;100100.69;;;25.47;29.55
24486;BME280;13449;49.374;8.584;2023-06-14T10:14:05;100106.91;;;25.65;30.89
24486;BME280;13449;49.374;8.584;2023-06-14T10:16:45;100100.75;;;25.58;29.14
24486;BME280;13449;49.374;8.584;2023-06-14T10:19:21;100098.56;;;25.74;29.59
24486;BME280;13449;49.374;8.584;2023-06-14T10:22:11;100098.25;;;25.38;29.15
24486;BME280;13449;49.374;8.584;2023-06-14T10:24:44;100109.47;;;25.17;30.00
24486;BME280;13449;49.374;8.584;2023-06-14T10:27:14;100107.84;;;24.85;30.43
24486;BME280;13449;49.374;8.584;2023-06-14T10:32:31;100106.34;;;24.89;31.12
24486;BME280;13449;49.374;8.584;2023-06-14T10:35:04;100107.94;;;24.71;31.87
24486;BME280;13449;49.374;8.584;2023-06-14T10:37:32;100104.34;;;24.53;31.72
24486;BME280;13449;49.374;8.584;2023-06-14T10:39:59;100098.78;;;25.04;31.15
24486;BME280;13449;49.374;8.584;2023-06-14T10:42:31;100110.34;;;25.11;30.45
24486;BME280;13449;49.374;8.584;2023-06-14T10:44:58;100102.69;;;24.83;31.13
24486;BME280;13449;49.374;8.584;2023-06-14T10:47:35;100103.31;;;25.10;31.00
24486;BME280;13449;49.374;8.584;2023-06-14T10:50:07;100100.19;;;24.82;30.86
24486;BME280;13449;49.374;8.584;2023-06-14T10:52:37;100101.53;;;25.22;30.40
24486;BME280;13449;49.374;8.584;2023-06-14T10:55:14;100091.66;;;25.34;29.93
24486;BME280;13449;49.374;8.584;2023-06-14T10:57:46;100091.63;;;25.16;30.24
24486;BME280;13449;49.374;8.584;2023-06-14T11:00:22;100100.78;;;25.15;30.54
24486;BME280;13449;49.374;8.584;2023-06-14T11:10:47;100097.16;;;25.03;31.10
24486;BME280;13449;49.374;8.584;2023-06-14T11:13:15;100103.50;;;24.84;32.12
24486;BME280;13449;49.374;8.584;2023-06-14T11:15:47;100105.53;;;24.63;31.51
24486;BME280;13449;49.374;8.584;2023-06-14T11:18:14;100097.47;;;24.57;31.14
24486;BME280;13449;49.374;8.584;2023-06-14T11:20:46;100111.16;;;24.55;32.18
24486;BME280;13449;49.374;8.584;2023-06-14T11:23:13;100113.81;;;24.30;33.54
24486;BME280;13449;49.374;8.584;2023-06-14T11:25:49;100099.91;;;24.65;31.42
24486;BME280;13449;49.374;8.584;2023-06-14T11:28:18;100089.53;;;24.68;32.18
24486;BME280;13449;49.374;8.584;2023-06-14T11:30:46;100099.69;;;24.35;32.25
24486;BME280;13449;49.374;8.584;2023-06-14T11:33:19;100099.47;;;24.36;31.68
24486;BME280;13449;49.374;8.584;2023-06-14T11:35:46;100101.81;;;24.19;31.72
24486;BME280;13449;49.374;8.584;2023-06-14T11:38:15;100104.72;;;24.11;31.52
24486;BME280;13449;49.374;8.584;2023-06-14T11:40:44;100098.94;;;24.14;31.92
24486;BME280;13449;49.374;8.584;2023-06-14T11:43:11;100103.97;;;24.04;31.97
24486;BME280;13449;49.374;8.584;2023-06-14T11:45:40;100100.50;;;24.29;31.97
24486;BME280;13449;49.374;8.584;2023-06-14T11:48:07;100095.72;;;24.69;31.59
24486;BME280;13449;49.374;8.584;2023-06-14T11:50:37;100094.06;;;24.93;31.50
24486;BME280;13449;49.374;8.584;2023-06-14T11:53:06;100089.53;;;25.18;30.88
24486;BME280;13449;49.374;8.584;2023-06-14T11:55:37;100104.06;;;25.17;31.45
24486;BME280;13449;49.374;8.584;2023-06-14T11:58:06;100088.28;;;24.96;31.46
24486;BME280;13449;49.374;8.584;2023-06-14T12:00:35;100094.63;;;24.76;30.94
24486;BME280;13449;49.374;8.584;2023-06-14T12:03:06;100101.50;;;24.72;31.46
24486;BME280;13449;49.374;8.584;2023-06-14T12:05:33;100098.31;;;25.14;31.27
24486;BME280;13449;49.374;8.584;2023-06-14T12:08:03;100100.53;;;24.92;31.55
24486;BME280;13449;49.374;8.584;2023-06-14T12:10:29;100093.06;;;24.94;30.77
24486;BME280;13449;49.374;8.584;2023-06-14T12:12:57;100095.06;;;25.48;31.83
24486;BME280;13449;49.374;8.584;2023-06-14T12:15:28;100090.22;;;25.75;30.04
24486;BME280;13449;49.374;8.584;2023-06-14T12:17:57;100089.44;;;26.05;29.72
24486;BME280;13449;49.374;8.584;2023-06-14T12:20:30;100088.53;;;26.11;29.67
24486;BME280;13449;49.374;8.584;2023-06-14T12:23:03;100091.53;;;26.03;29.20
24486;BME280;13449;49.374;8.584;2023-06-14T12:25:31;100087.94;;;26.09;30.07
24486;BME280;13449;49.374;8.584;2023-06-14T12:28:03;100081.66;;;26.26;28.79
24486;BME280;13449;49.374;8.584;2023-06-14T12:30:29;100083.63;;;25.71;28.69
24486;BME280;13449;49.374;8.584;2023-06-14T12:32:58;100081.34;;;25.86;29.38
24486;BME280;13449;49.374;8.584;2023-06-14T12:35:25;100082.50;;;26.27;30.22
24486;BME280;13449;49.374;8.584;2023-06-14T12:37:51;100087.94;;;26.09;29.52
24486;BME280;13449;49.374;8.584;2023-06-14T12:40:21;100086.31;;;25.89;29.07
24486;BME280;13449;49.374;8.584;2023-06-14T12:42:47;100081.78;;;25.65;29.48
24486;BME280;13449;49.374;8.584;2023-06-14T12:45:15;100084.78;;;25.38;29.49
24486;BME280;13449;49.374;8.584;2023-06-14T12:47:42;100085.41;;;25.41;29.69
24486;BME280;13449;49.374;8.584;2023-06-14T12:50:09;100075.34;;;25.29;29.63
24486;BME280;13449;49.374;8.584;2023-06-14T12:52:38;100093.41;;;25.04;29.63
24486;BME280;13449;49.374;8.584;2023-06-14T12:55:07;100095.44;;;25.08;31.04
24486;BME280;13449;49.374;8.584;2023-06-14T12:57:35;100094.69;;;25.45;30.77
24486;BME280;13449;49.374;8.584;2023-06-14T13:00:06;100093.09;;;26.10;32.54
24486;BME280;13449;49.374;8.584;2023-06-14T13:02:34;100081.94;;;26.07;28.08
24486;BME280;13449;49.374;8.584;2023-06-14T13:05:01;100092.16;;;26.05;29.70
24486;BME280;13449;49.374;8.584;2023-06-14T13:07:30;100090.13;;;25.63;29.25
24486;BME280;13449;49.374;8.584;2023-06-14T13:09:57;100094.22;;;25.48;30.16
24486;BME280;13449;49.374;8.584;2023-06-14T13:12:23;100096.78;;;25.43;29.33
24486;BME280;13449;49.374;8.584;2023-06-14T13:14:50;100105.22;;;25.03;30.66
24486;BME280;13449;49.374;8.584;2023-06-14T13:17:17;100105.03;;;24.98;30.58